Maersk Visby — 9V8827 — position and weather

sailwx.info

Track history (hours):
 
Tides and Currents Weather Stations Pressure Air Temp Water Temp Dewpoint Dewpoint Depression Visibility Wind Speed Wind Dir Waves Ship Positions

Maersk Visby

Last reported at 2015-Feb-26 15:24 UTC. Time now 2015-Feb-27 13:14 UTC.
Position N 27°06' W 079°17'.

Length 180 m; draft 8.3 m.

Type: Ship (hazmat cat D). MMSI: 564979000.

Date/timePositionNaut miles runAvg speedWind from/ knotsBaromVisibWave heightAir tempDewpointWater temp
2015-Feb-26 15:24N 27°06' W 079°17'7 7.6
2015-Feb-26 14:28N 27°13' W 079°16'  
2015-Feb-22 02:15N 37°56' W 076°11'4817.8
2015-Feb-21 23:33N 38°43' W 076°26'1716.6
2015-Feb-21 22:33N 38°59' W 076°23'1212.1
2015-Feb-21 21:33N 39°11' W 076°27'7 7.0
2015-Feb-21 20:33N 39°15' W 076°34'1 0.5
2015-Feb-21 19:27N 39°15' W 076°33'0 0.0
2015-Feb-21 18:33N 39°15' W 076°33'0 0.0
2015-Feb-21 17:33N 39°15' W 076°33'0 0.0
2015-Feb-21 16:33N 39°15' W 076°33'0 0.0
2015-Feb-21 15:30N 39°15' W 076°33'0 0.0
2015-Feb-21 14:33N 39°15' W 076°33'0 0.0
2015-Feb-21 13:33N 39°15' W 076°33'0 0.0
2015-Feb-21 12:33N 39°15' W 076°33'0 0.0
2015-Feb-21 11:33N 39°15' W 076°33'2 2.3
2015-Feb-21 10:33N 39°13' W 076°32'1110.7
2015-Feb-21 09:33N 39°05' W 076°24'1615.6
2015-Feb-21 08:33N 38°49' W 076°25'5317.5
2015-Feb-21 05:31N 37°57' W 076°11'150 8.4
2015-Feb-20 11:33N 39°40' W 073°51'4013.0
2015-Feb-20 08:29N 40°20' W 073°49'9 8.0
2015-Feb-20 07:21N 40°29' W 073°54'1114.2
2015-Feb-20 06:33N 40°37' W 074°03'6 5.5
2015-Feb-20 05:33N 40°41' W 074°09'1 0.5
2015-Feb-20 04:29N 40°41' W 074°09'0 0.0
2015-Feb-20 03:29N 40°41' W 074°09'0 0.0
2015-Feb-20 02:29N 40°41' W 074°09'0 0.0
2015-Feb-20 01:23N 40°41' W 074°09'0 0.0
2015-Feb-20 00:32N 40°41' W 074°09'0 0.0
2015-Feb-19 23:29N 40°41' W 074°09'0 0.0
2015-Feb-19 22:29N 40°41' W 074°09'0 0.0
2015-Feb-19 21:29N 40°41' W 074°09'0 0.0
2015-Feb-19 20:17N 40°41' W 074°09'0 0.0
2015-Feb-19 19:29N 40°41' W 074°09'0 0.0
2015-Feb-19 18:29N 40°41' W 074°09'0 0.0
2015-Feb-19 17:29N 40°41' W 074°09'0 0.0
2015-Feb-19 16:29N 40°41' W 074°09'0 0.0
2015-Feb-19 15:23N 40°41' W 074°09'0 0.0
2015-Feb-19 14:29N 40°41' W 074°09'0 0.0
2015-Feb-19 13:23N 40°41' W 074°09'0 0.0
2015-Feb-19 12:29N 40°41' W 074°09'0 0.0
2015-Feb-19 11:32N 40°41' W 074°09'0 0.0
2015-Feb-19 10:29N 40°41' W 074°09'0 0.0
2015-Feb-19 09:29N 40°41' W 074°09'0 0.0
2015-Feb-19 08:29N 40°41' W 074°09'0 0.0
2015-Feb-19 07:29N 40°41' W 074°09'0 0.0
2015-Feb-19 06:29N 40°41' W 074°09'0 0.0
2015-Feb-19 05:29N 40°41' W 074°09'0 0.0
2015-Feb-19 04:29N 40°41' W 074°09'0 0.0
2015-Feb-19 02:26N 40°41' W 074°09'0 0.0
2015-Feb-19 01:30N 40°41' W 074°09'0 0.0
2015-Feb-19 00:29N 40°41' W 074°09'0 0.0
2015-Feb-18 23:32N 40°41' W 074°09'0 0.0
2015-Feb-18 22:29N 40°41' W 074°09'0 0.3
2015-Feb-18 21:33N 40°41' W 074°09'5 4.8
2015-Feb-18 20:33N 40°39' W 074°03'1010.3
2015-Feb-18 19:33N 40°30' W 073°56'9 8.8
2015-Feb-18 18:33N 40°24' W 073°48'12 9.7
2015-Feb-18 17:21N 40°12' W 073°45'1113.5
2015-Feb-18 16:34N 40°02' W 073°43'  
Track history (hours):
 
Tides and Currents Weather Stations Pressure Air Temp Water Temp Dewpoint Dewpoint Depression Visibility Wind Speed Wind Dir Waves Ship Positions

Maersk Visby

Last reported at 2015-Feb-26 15:24 UTC. Time now 2015-Feb-27 13:14 UTC.
Position N 27°06' W 079°17'.

Length 180 m; draft 8.3 m.

Type: Ship (hazmat cat D). MMSI: 564979000.

Date/timePositionNaut miles runAvg speedWind from/ knotsBaromVisibWave heightAir tempDewpointWater temp
2015-Feb-26 15:24N 27°06' W 079°17'7 7.6
2015-Feb-26 14:28N 27°13' W 079°16'  
2015-Feb-22 02:15N 37°56' W 076°11'4817.8
2015-Feb-21 23:33N 38°43' W 076°26'1716.6
2015-Feb-21 22:33N 38°59' W 076°23'1212.1
2015-Feb-21 21:33N 39°11' W 076°27'7 7.0
2015-Feb-21 20:33N 39°15' W 076°34'1 0.5
2015-Feb-21 19:27N 39°15' W 076°33'0 0.0
2015-Feb-21 18:33N 39°15' W 076°33'0 0.0
2015-Feb-21 17:33N 39°15' W 076°33'0 0.0
2015-Feb-21 16:33N 39°15' W 076°33'0 0.0
2015-Feb-21 15:30N 39°15' W 076°33'0 0.0
2015-Feb-21 14:33N 39°15' W 076°33'0 0.0
2015-Feb-21 13:33N 39°15' W 076°33'0 0.0
2015-Feb-21 12:33N 39°15' W 076°33'0 0.0
2015-Feb-21 11:33N 39°15' W 076°33'2 2.3
2015-Feb-21 10:33N 39°13' W 076°32'1110.7
2015-Feb-21 09:33N 39°05' W 076°24'1615.6
2015-Feb-21 08:33N 38°49' W 076°25'5317.5
2015-Feb-21 05:31N 37°57' W 076°11'150 8.4
2015-Feb-20 11:33N 39°40' W 073°51'4013.0
2015-Feb-20 08:29N 40°20' W 073°49'9 8.0
2015-Feb-20 07:21N 40°29' W 073°54'1114.2
2015-Feb-20 06:33N 40°37' W 074°03'6 5.5
2015-Feb-20 05:33N 40°41' W 074°09'1 0.5
2015-Feb-20 04:29N 40°41' W 074°09'0 0.0
2015-Feb-20 03:29N 40°41' W 074°09'0 0.0
2015-Feb-20 02:29N 40°41' W 074°09'0 0.0
2015-Feb-20 01:23N 40°41' W 074°09'0 0.0
2015-Feb-20 00:32N 40°41' W 074°09'0 0.0
2015-Feb-19 23:29N 40°41' W 074°09'0 0.0
2015-Feb-19 22:29N 40°41' W 074°09'0 0.0
2015-Feb-19 21:29N 40°41' W 074°09'0 0.0
2015-Feb-19 20:17N 40°41' W 074°09'0 0.0
2015-Feb-19 19:29N 40°41' W 074°09'0 0.0
2015-Feb-19 18:29N 40°41' W 074°09'0 0.0
2015-Feb-19 17:29N 40°41' W 074°09'0 0.0
2015-Feb-19 16:29N 40°41' W 074°09'0 0.0
2015-Feb-19 15:23N 40°41' W 074°09'0 0.0
2015-Feb-19 14:29N 40°41' W 074°09'0 0.0
2015-Feb-19 13:23N 40°41' W 074°09'0 0.0
2015-Feb-19 12:29N 40°41' W 074°09'0 0.0
2015-Feb-19 11:32N 40°41' W 074°09'0 0.0
2015-Feb-19 10:29N 40°41' W 074°09'0 0.0
2015-Feb-19 09:29N 40°41' W 074°09'0 0.0
2015-Feb-19 08:29N 40°41' W 074°09'0 0.0
2015-Feb-19 07:29N 40°41' W 074°09'0 0.0
2015-Feb-19 06:29N 40°41' W 074°09'0 0.0
2015-Feb-19 05:29N 40°41' W 074°09'0 0.0
2015-Feb-19 04:29N 40°41' W 074°09'0 0.0
2015-Feb-19 02:26N 40°41' W 074°09'0 0.0
2015-Feb-19 01:30N 40°41' W 074°09'0 0.0
2015-Feb-19 00:29N 40°41' W 074°09'0 0.0
2015-Feb-18 23:32N 40°41' W 074°09'0 0.0
2015-Feb-18 22:29N 40°41' W 074°09'0 0.3
2015-Feb-18 21:33N 40°41' W 074°09'5 4.8
2015-Feb-18 20:33N 40°39' W 074°03'1010.3
2015-Feb-18 19:33N 40°30' W 073°56'9 8.8
2015-Feb-18 18:33N 40°24' W 073°48'12 9.7
2015-Feb-18 17:21N 40°12' W 073°45'1113.5
2015-Feb-18 16:34N 40°02' W 073°43'  

Dump ship's entire track history